createdAt,value
2022-09-10T00:00:46.448Z,43.8
2022-09-10T00:02:03.552Z,42.2
2022-09-10T00:03:20.657Z,45.7
2022-09-10T00:04:37.761Z,53.3
2022-09-10T00:05:54.865Z,57.6
2022-09-10T00:07:11.970Z,59.2
2022-09-10T00:08:29.074Z,48.6
2022-09-10T00:09:46.178Z,41.8
2022-09-10T00:11:03.283Z,43.1
2022-09-10T00:12:20.387Z,46.8
2022-09-10T00:13:37.491Z,44.9
2022-09-10T00:14:54.595Z,60.4
2022-09-10T00:16:10.716Z,66.7
2022-09-10T00:17:27.820Z,45.6
2022-09-10T00:18:44.924Z,58.3
2022-09-10T00:20:02.028Z,44.3
2022-09-10T00:21:19.133Z,42.8
2022-09-10T00:22:36.237Z,43.3
2022-09-10T00:23:53.342Z,42.3
2022-09-10T00:25:10.446Z,58.6
2022-09-10T00:26:27.550Z,46.2
2022-09-10T00:27:44.654Z,52.8
2022-09-10T00:29:01.758Z,55.5
2022-09-10T00:30:18.862Z,44.1
2022-09-10T00:31:35.966Z,53.6
2022-09-10T00:32:52.087Z,43.1
2022-09-10T00:34:09.191Z,58.6
2022-09-10T00:35:26.296Z,44.4
2022-09-10T00:36:43.400Z,44.1
2022-09-10T00:38:00.504Z,61.3
2022-09-10T00:39:17.608Z,51.4
2022-09-10T00:40:34.712Z,48.8
2022-09-10T00:41:51.817Z,56.8
2022-09-10T00:43:08.921Z,62.1
2022-09-10T00:44:26.025Z,43.1
2022-09-10T00:45:43.130Z,43.6
2022-09-10T00:47:00.234Z,64.4
2022-09-10T00:48:17.338Z,55.9
2022-09-10T00:49:33.458Z,41.5
2022-09-10T00:50:50.563Z,60.7
2022-09-10T00:52:07.667Z,41.7
2022-09-10T00:53:24.771Z,41.5
2022-09-10T00:54:41.875Z,43.1
2022-09-10T00:55:58.979Z,42.7
2022-09-10T00:57:16.084Z,54.1
2022-09-10T00:58:33.188Z,43.1
2022-09-10T00:59:50.292Z,41.8
2022-09-10T01:01:07.396Z,42.3
2022-09-10T01:02:24.500Z,59.1
2022-09-10T01:03:41.604Z,52
2022-09-10T01:04:58.709Z,48.8
2022-09-10T01:06:14.829Z,42
2022-09-10T01:07:31.933Z,42.5
2022-09-10T01:08:49.038Z,45.6
2022-09-10T01:10:06.142Z,45.9
2022-09-10T01:11:23.246Z,44.4
2022-09-10T01:12:40.350Z,42.8
2022-09-10T01:13:57.455Z,43
2022-09-10T01:15:14.560Z,47.3
2022-09-10T01:16:31.664Z,51.8
2022-09-10T01:17:48.768Z,45.1
2022-09-10T01:19:05.873Z,53.4
2022-09-10T01:20:22.977Z,45.7
2022-09-10T01:21:40.081Z,51.8
2022-09-10T01:22:56.202Z,61.3
2022-09-10T01:24:13.306Z,45.6
2022-09-10T01:25:30.411Z,44.9
2022-09-10T01:26:47.515Z,46
2022-09-10T01:28:04.619Z,52.3
2022-09-10T01:29:21.723Z,55.1
2022-09-10T01:30:38.828Z,44.1
2022-09-10T01:31:55.932Z,43.1
2022-09-10T01:33:13.036Z,44.6
2022-09-10T01:34:30.140Z,42.8
2022-09-10T01:35:47.245Z,43.9
2022-09-10T01:37:04.349Z,52.3
2022-09-10T01:38:21.453Z,45.2
2022-09-10T01:39:37.573Z,55.4
2022-09-10T01:40:54.675Z,48
2022-09-10T01:42:11.780Z,43.1
2022-09-10T01:43:28.884Z,44.1
2022-09-10T01:44:45.988Z,47.6
2022-09-10T01:46:03.093Z,43.8
2022-09-10T01:47:20.197Z,43.9
2022-09-10T01:48:37.301Z,52.2
2022-09-10T01:49:54.405Z,44.9
2022-09-10T01:51:11.509Z,44.6
2022-09-10T01:52:28.614Z,42.8
2022-09-10T01:53:45.718Z,57.6
2022-09-10T01:55:02.822Z,43.8
2022-09-10T01:56:18.942Z,42.8
2022-09-10T01:57:36.047Z,43
2022-09-10T01:58:53.152Z,42
2022-09-10T02:00:10.256Z,55.1
2022-09-10T02:01:27.360Z,48.6
2022-09-10T02:02:44.464Z,51.5
2022-09-10T02:04:01.569Z,42.7
2022-09-10T02:05:18.673Z,43.3
2022-09-10T02:06:35.777Z,44.9
2022-09-10T02:07:52.881Z,61.8
2022-09-10T02:09:09.986Z,43
2022-09-10T02:10:27.091Z,40.7
2022-09-10T02:11:44.195Z,42.3
2022-09-10T02:13:00.316Z,44.7
2022-09-10T02:14:17.420Z,42.5
2022-09-10T02:15:34.525Z,42.7
2022-09-10T02:16:51.629Z,45.1
2022-09-10T02:18:08.733Z,54.1
2022-09-10T02:19:25.837Z,43.9
2022-09-10T02:20:42.942Z,42
2022-09-10T02:22:00.046Z,72.1
2022-09-10T02:23:17.150Z,62.6
2022-09-10T02:24:34.254Z,42.2
2022-09-10T02:25:51.359Z,42.3
2022-09-10T02:27:08.463Z,44.3
2022-09-10T02:28:25.568Z,47.5
2022-09-10T02:29:41.688Z,43.3
2022-09-10T02:30:58.792Z,67.5
2022-09-10T02:32:15.897Z,44.7
2022-09-10T02:33:33.001Z,43.1
2022-09-10T02:34:50.105Z,44.7
2022-09-10T02:36:07.209Z,42.3
2022-09-10T02:37:24.314Z,44.3
2022-09-10T02:38:41.418Z,62.5
2022-09-10T02:39:58.522Z,41.7
2022-09-10T02:41:15.627Z,42.7
2022-09-10T02:42:32.731Z,60.1
2022-09-10T02:43:49.836Z,52.6
2022-09-10T02:45:06.940Z,55.9
2022-09-10T02:46:23.060Z,43.3
2022-09-10T02:47:40.164Z,42.7
2022-09-10T02:48:57.269Z,65.5
2022-09-10T02:50:14.373Z,43.6
2022-09-10T02:51:31.477Z,43.1
2022-09-10T02:52:48.582Z,52.5
2022-09-10T02:54:05.686Z,43.3
2022-09-10T02:55:22.790Z,43.1
2022-09-10T02:56:39.894Z,49.9
2022-09-10T02:57:56.998Z,43.8
2022-09-10T02:59:14.103Z,43.6
2022-09-10T03:00:31.207Z,44.3
2022-09-10T03:01:48.311Z,42.2
2022-09-10T03:03:04.432Z,43.3
2022-09-10T03:04:21.536Z,49.9
2022-09-10T03:05:38.640Z,46
2022-09-10T03:06:55.744Z,43.9
2022-09-10T03:08:12.849Z,49.1
2022-09-10T03:09:29.953Z,42.3
2022-09-10T03:10:47.058Z,42
2022-09-10T03:12:04.162Z,43.8
2022-09-10T03:13:21.266Z,44.3
2022-09-10T03:14:38.371Z,43.9
2022-09-10T03:15:55.475Z,42.2
2022-09-10T03:17:12.579Z,44.3
2022-09-10T03:18:29.684Z,52
2022-09-10T03:19:45.805Z,45.9
2022-09-10T03:21:02.909Z,53.1
2022-09-10T03:22:20.015Z,67.3
2022-09-10T03:23:37.119Z,49.1
2022-09-10T03:24:54.223Z,44.1
2022-09-10T03:26:11.328Z,43.6
2022-09-10T03:27:28.432Z,43.1
2022-09-10T03:28:45.537Z,65.2
2022-09-10T03:30:02.641Z,61.7
2022-09-10T03:31:19.745Z,65
2022-09-10T03:32:36.850Z,50.1
2022-09-10T03:33:53.954Z,63.6
2022-09-10T03:35:11.058Z,61.5
2022-09-10T03:36:27.178Z,60.2
2022-09-10T03:37:44.283Z,59.4
2022-09-10T03:39:01.387Z,46
2022-09-10T03:40:18.491Z,68.1
2022-09-10T03:41:35.595Z,44.7
2022-09-10T03:42:52.699Z,55.4
2022-09-10T03:44:08.820Z,56.7
2022-09-10T03:45:25.925Z,66.8
2022-09-10T03:46:43.029Z,46.7
2022-09-10T03:48:00.133Z,68.1
2022-09-10T03:49:17.238Z,65.9
2022-09-10T03:50:34.342Z,62.3
2022-09-10T03:51:51.446Z,48.3
2022-09-10T03:53:08.550Z,61.3
2022-09-10T03:54:25.654Z,64.9
2022-09-10T03:55:42.759Z,47.2
2022-09-10T03:56:59.863Z,48.5
2022-09-10T03:58:16.967Z,44.3
2022-09-10T03:59:34.071Z,45.4
2022-09-10T04:00:50.192Z,68.6
2022-09-10T04:02:07.296Z,58.3
2022-09-10T04:03:24.400Z,52.8
2022-09-10T04:04:41.504Z,61.7
2022-09-10T04:05:58.608Z,63
2022-09-10T04:07:15.712Z,59.7
2022-09-10T04:08:32.816Z,45.6
2022-09-10T04:09:49.920Z,44.3
2022-09-10T04:11:07.024Z,65.7
2022-09-10T04:12:24.129Z,55.1
2022-09-10T04:13:41.233Z,63.8
2022-09-10T04:14:58.338Z,43.6
2022-09-10T04:16:15.443Z,63.6
2022-09-10T04:17:31.563Z,60.7
2022-09-10T04:18:48.668Z,58.8
2022-09-10T04:20:05.772Z,58.8
2022-09-10T04:21:22.876Z,59.2
2022-09-10T04:22:39.980Z,55.1
2022-09-10T04:23:57.085Z,65.5
2022-09-10T04:25:14.189Z,47.2
2022-09-10T04:26:31.293Z,46.7
2022-09-10T04:27:48.397Z,54.6
2022-09-10T04:29:05.502Z,46.8
2022-09-10T04:30:22.606Z,49.4
2022-09-10T04:31:39.710Z,65.2
2022-09-10T04:32:56.815Z,62.6
2022-09-10T04:34:12.935Z,54.3
2022-09-10T04:36:47.144Z,49.6
2022-09-10T04:38:04.248Z,51.2
2022-09-10T04:39:21.352Z,48.5
2022-09-10T04:40:38.457Z,53.1
2022-09-10T04:41:55.561Z,57
2022-09-10T04:43:12.665Z,64.9
2022-09-10T04:44:29.769Z,48.9
2022-09-10T04:45:46.873Z,46
2022-09-10T04:47:03.978Z,50.9
2022-09-10T04:48:21.082Z,50.9
2022-09-10T04:49:38.186Z,55.4
2022-09-10T04:50:54.306Z,56.5
2022-09-10T04:52:11.411Z,57.2
2022-09-10T04:53:28.515Z,63.6
2022-09-10T04:54:45.619Z,61.8
2022-09-10T04:56:02.724Z,54.4
2022-09-10T04:57:19.828Z,45.4
2022-09-10T04:58:36.932Z,57.6
2022-09-10T04:59:54.036Z,59.9
2022-09-10T05:01:11.140Z,66.3
2022-09-10T05:02:28.245Z,71
2022-09-10T05:03:45.349Z,63.1
2022-09-10T05:05:02.454Z,63.6
2022-09-10T05:06:19.558Z,54.3
2022-09-10T05:07:35.678Z,62.3
2022-09-10T05:08:52.783Z,49.7
2022-09-10T05:10:09.887Z,53.9
2022-09-10T05:11:26.991Z,46.8
2022-09-10T05:12:44.096Z,47.6
2022-09-10T05:14:01.200Z,55.7
2022-09-10T05:15:18.304Z,56.8
2022-09-10T05:16:35.409Z,60.1
2022-09-10T05:17:52.513Z,54.9
2022-09-10T05:19:09.617Z,54.1
2022-09-10T05:20:26.722Z,56
2022-09-10T05:21:43.826Z,53
2022-09-10T05:23:00.930Z,56
2022-09-10T05:24:17.050Z,48
2022-09-10T05:25:34.155Z,47.3
2022-09-10T05:26:51.259Z,59.2
2022-09-10T05:28:08.363Z,53.4
2022-09-10T05:29:25.467Z,61.2
2022-09-10T05:30:42.572Z,56
2022-09-10T05:31:59.676Z,46.8
2022-09-10T05:33:16.780Z,56.7
2022-09-10T05:34:33.884Z,60.2
2022-09-10T05:35:50.989Z,60.7
2022-09-10T05:37:08.093Z,54.9
2022-09-10T05:38:25.198Z,53.6
2022-09-10T05:39:42.302Z,48.1
2022-09-10T05:40:58.423Z,54.7
2022-09-10T05:42:15.527Z,55.1
2022-09-10T05:43:32.632Z,61
2022-09-10T05:44:49.736Z,58
2022-09-10T05:46:06.840Z,54.1
2022-09-10T05:47:23.945Z,52.8
2022-09-10T05:48:41.050Z,60.5
2022-09-10T05:49:58.154Z,54.3
2022-09-10T05:51:15.259Z,48.5
2022-09-10T05:52:32.363Z,71.5
2022-09-10T05:53:49.467Z,56
2022-09-10T05:55:06.572Z,62.3
2022-09-10T05:56:23.676Z,62.1
2022-09-10T05:57:39.797Z,56
2022-09-10T05:58:56.901Z,58.6
2022-09-10T06:00:14.006Z,57.6
2022-09-10T06:01:31.110Z,63
2022-09-10T06:02:48.215Z,58.6
2022-09-10T06:04:05.319Z,59.7
2022-09-10T06:05:22.424Z,61.5
2022-09-10T06:06:39.528Z,63.4
2022-09-10T06:07:56.632Z,62.6
2022-09-10T06:09:13.737Z,59.6
2022-09-10T06:10:30.842Z,58.4
2022-09-10T06:11:47.946Z,59.1
2022-09-10T06:13:05.050Z,67.3
2022-09-10T06:14:21.171Z,54.7
2022-09-10T06:15:38.275Z,61
2022-09-10T06:16:55.380Z,67.5
2022-09-10T06:18:12.485Z,67.5
2022-09-10T06:19:29.589Z,57.6
2022-09-10T06:20:46.694Z,48.9
2022-09-10T06:22:03.798Z,68.3
2022-09-10T06:23:20.903Z,60.5
2022-09-10T06:24:38.007Z,59.4
2022-09-10T06:25:55.112Z,67
2022-09-10T06:27:12.216Z,60.4
2022-09-10T06:28:29.321Z,61.2
2022-09-10T06:29:46.425Z,58.3
2022-09-10T06:31:02.546Z,58.9
2022-09-10T06:32:19.650Z,61.5
2022-09-10T06:33:36.755Z,53
2022-09-10T06:34:53.859Z,56.7
2022-09-10T06:36:10.963Z,58.6
2022-09-10T06:37:28.067Z,61.2
2022-09-10T06:38:45.172Z,55.2
2022-09-10T06:40:02.276Z,59.9
2022-09-10T06:41:19.380Z,52.5
2022-09-10T06:42:36.485Z,53.3
2022-09-10T06:43:53.590Z,62.1
2022-09-10T06:45:10.694Z,64.4
2022-09-10T06:46:27.798Z,72
2022-09-10T06:47:43.919Z,60.4
2022-09-10T06:49:01.024Z,62.6
2022-09-10T06:50:18.129Z,58.1
2022-09-10T06:51:35.233Z,60.1
2022-09-10T06:52:52.337Z,58.4
2022-09-10T06:54:09.442Z,64.1
2022-09-10T06:55:26.546Z,61.2
2022-09-10T06:56:43.650Z,61.2
2022-09-10T06:58:00.755Z,55.1
2022-09-10T06:59:17.859Z,58.3
2022-09-10T07:00:34.964Z,73.3
2022-09-10T07:01:52.068Z,62.5
2022-09-10T07:03:09.173Z,61.8
2022-09-10T07:04:25.293Z,61.2
2022-09-10T07:05:42.398Z,51.7
2022-09-10T07:06:59.502Z,64.1
2022-09-10T07:08:16.607Z,60.4
2022-09-10T07:09:33.711Z,52.3
2022-09-10T07:10:50.815Z,65.2
2022-09-10T07:12:07.920Z,57.2
2022-09-10T07:13:25.024Z,65.7
2022-09-10T07:14:42.128Z,68.8
2022-09-10T07:15:59.233Z,55.1
2022-09-10T07:17:16.338Z,60.2
2022-09-10T07:18:33.442Z,60.7
2022-09-10T07:19:50.546Z,59.9
2022-09-10T07:21:06.667Z,56
2022-09-10T07:22:23.771Z,58.1
2022-09-10T07:23:40.875Z,61.5
2022-09-10T07:24:57.979Z,59.7
2022-09-10T07:26:15.083Z,65.7
2022-09-10T07:27:32.187Z,66.3
2022-09-10T07:28:49.291Z,61.8
2022-09-10T07:30:06.395Z,66.7
2022-09-10T07:31:23.499Z,62.8
2022-09-10T07:32:40.603Z,63.4
2022-09-10T07:33:57.707Z,55.1
2022-09-10T07:35:14.811Z,65.4
2022-09-10T07:36:31.915Z,60.4
2022-09-10T07:37:48.035Z,55.7
2022-09-10T07:39:05.140Z,61.2
2022-09-10T07:40:22.243Z,65.4
2022-09-10T07:41:39.347Z,56
2022-09-10T07:42:56.451Z,64.7
2022-09-10T07:44:13.555Z,59.2
2022-09-10T07:45:30.659Z,60.4
2022-09-10T07:46:47.764Z,69.7
2022-09-10T07:48:04.867Z,64.7
2022-09-10T07:49:21.972Z,56.5
2022-09-10T07:50:39.076Z,66.8
2022-09-10T07:51:56.180Z,61.7
2022-09-10T07:53:13.283Z,64.9
2022-09-10T07:54:29.403Z,60.1
2022-09-10T07:55:46.507Z,59.9
2022-09-10T07:57:03.611Z,64.4
2022-09-10T07:58:20.715Z,60.1
2022-09-10T07:59:37.819Z,61.8
2022-09-10T08:00:54.924Z,64.9
2022-09-10T08:02:11.044Z,63
2022-09-10T08:03:28.148Z,62.5
2022-09-10T08:04:45.252Z,65.4
2022-09-10T08:06:02.355Z,62.6
2022-09-10T08:07:19.459Z,56.2
2022-09-10T08:08:36.563Z,54.7
2022-09-10T08:09:53.667Z,60.2
2022-09-10T08:11:10.771Z,63.3
2022-09-10T08:12:27.875Z,66.7
2022-09-10T08:13:44.978Z,54.9
2022-09-10T08:15:02.082Z,66.2
2022-09-10T08:16:19.186Z,60.1
2022-09-10T08:17:36.290Z,60.4
2022-09-10T08:18:52.410Z,64.6
2022-09-10T08:20:09.513Z,64.7
2022-09-10T08:21:26.617Z,63.6
2022-09-10T08:22:43.719Z,63.3
2022-09-10T08:24:00.823Z,58.9
2022-09-10T08:25:17.927Z,56
2022-09-10T08:26:35.031Z,63.4
2022-09-10T08:27:52.135Z,59.9
2022-09-10T08:29:09.238Z,62
2022-09-10T08:30:26.342Z,62.6
2022-09-10T08:31:43.446Z,66.3
2022-09-10T08:33:00.550Z,63.9
2022-09-10T08:34:17.655Z,61.7
2022-09-10T08:35:33.775Z,60.1
2022-09-10T08:36:50.879Z,64.2
2022-09-10T08:38:07.983Z,59.9
2022-09-10T08:39:25.087Z,63.1
2022-09-10T08:40:42.191Z,62.6
2022-09-10T08:41:59.295Z,63.1
2022-09-10T08:43:16.399Z,64.9
2022-09-10T08:44:33.503Z,60.1
2022-09-10T08:45:50.607Z,55.5
2022-09-10T08:47:07.711Z,55.1
2022-09-10T08:48:24.815Z,60.9
2022-09-10T08:49:41.919Z,61.2
2022-09-10T08:50:59.023Z,63.8
2022-09-10T08:52:15.143Z,62
2022-09-10T08:53:32.247Z,64.4
2022-09-10T08:54:49.351Z,63.6
2022-09-10T08:56:06.455Z,62.3
2022-09-10T08:57:23.560Z,60.9
2022-09-10T08:58:40.664Z,63.1
2022-09-10T08:59:57.768Z,56.3
2022-09-10T09:01:14.872Z,56.2
2022-09-10T09:02:31.976Z,56.7
2022-09-10T09:03:49.080Z,66.5
2022-09-10T09:05:06.184Z,62.3
2022-09-10T09:06:23.288Z,64.9
2022-09-10T09:07:40.393Z,59.1
2022-09-10T09:08:56.513Z,63.4
2022-09-10T09:10:13.617Z,64.9
2022-09-10T09:11:30.721Z,61.3
2022-09-10T09:12:47.825Z,61
2022-09-10T09:14:04.929Z,66
2022-09-10T09:15:22.033Z,64.7
2022-09-10T09:16:39.137Z,62
2022-09-10T09:17:56.241Z,56.7
2022-09-10T09:19:13.346Z,55.7
2022-09-10T09:20:30.450Z,61.3
2022-09-10T09:21:47.554Z,67.8
2022-09-10T09:23:04.658Z,58.6
2022-09-10T09:24:21.762Z,63.6
2022-09-10T09:25:37.882Z,60.4
2022-09-10T09:26:54.986Z,59.9
2022-09-10T09:28:12.091Z,57.6
2022-09-10T09:29:29.195Z,64.4
2022-09-10T09:30:46.299Z,60.7
2022-09-10T09:32:03.404Z,62.6
2022-09-10T09:33:20.508Z,65.4
2022-09-10T09:34:37.612Z,77.3
2022-09-10T09:35:54.716Z,63.3
2022-09-10T09:37:11.820Z,64.7
2022-09-10T09:38:28.924Z,61.8
2022-09-10T09:39:46.028Z,63.9
2022-09-10T09:41:03.132Z,60.7
2022-09-10T09:42:19.253Z,62.1
2022-09-10T09:43:36.357Z,57.3
2022-09-10T09:44:53.461Z,62.6
2022-09-10T09:46:10.564Z,60.5
2022-09-10T09:47:27.668Z,66.7
2022-09-10T09:48:44.772Z,62.6
2022-09-10T09:50:01.876Z,60.2
2022-09-10T09:51:18.980Z,63.4
2022-09-10T09:52:36.084Z,60.1
2022-09-10T09:53:53.188Z,59.1
2022-09-10T09:55:10.292Z,64.9
2022-09-10T09:56:27.396Z,60.4
2022-09-10T09:57:44.500Z,61.3
2022-09-10T09:59:00.620Z,61.5
2022-09-10T10:00:17.724Z,69.9
2022-09-10T10:01:34.828Z,64.4
2022-09-10T10:02:51.932Z,72
2022-09-10T10:04:09.036Z,69.4
2022-09-10T10:05:26.140Z,58
2022-09-10T10:06:43.244Z,61.5
2022-09-10T10:08:00.347Z,58.9
2022-09-10T10:09:17.451Z,60.1
2022-09-10T10:10:34.555Z,67.3
2022-09-10T10:11:51.659Z,60.4
2022-09-10T10:13:08.763Z,61.2
2022-09-10T10:14:25.867Z,60.9
2022-09-10T10:15:41.987Z,64.6
2022-09-10T10:16:59.091Z,57.8
2022-09-10T10:18:16.195Z,61
2022-09-10T10:19:33.299Z,64.4
2022-09-10T10:20:50.403Z,64.9
2022-09-10T10:22:07.507Z,63.4
2022-09-10T10:23:24.611Z,61
2022-09-10T10:24:41.715Z,57.3
2022-09-10T10:25:58.819Z,56.5
2022-09-10T10:27:15.923Z,56.8
2022-09-10T10:28:33.027Z,59.4
2022-09-10T10:29:50.132Z,64.1
2022-09-10T10:31:07.236Z,62.5
2022-09-10T10:32:23.356Z,62.1
2022-09-10T10:33:40.460Z,56.5
2022-09-10T10:34:57.564Z,58.6
2022-09-10T10:36:14.668Z,59.6
2022-09-10T10:37:31.773Z,63.9
2022-09-10T10:38:48.877Z,59.4
2022-09-10T10:40:05.981Z,62
2022-09-10T10:41:23.085Z,62
2022-09-10T10:42:40.189Z,57
2022-09-10T10:43:57.293Z,61.3
2022-09-10T10:45:14.397Z,61.7
2022-09-10T10:46:31.501Z,53.8
2022-09-10T10:47:48.605Z,51.2
2022-09-10T10:49:04.725Z,58.6
2022-09-10T10:50:21.829Z,52.2
2022-09-10T10:51:38.933Z,65
2022-09-10T10:52:56.037Z,63.4
2022-09-10T10:54:13.141Z,61.7
2022-09-10T10:55:30.245Z,62
2022-09-10T10:56:47.349Z,62.3
2022-09-10T10:58:04.453Z,62.1
2022-09-10T10:59:21.557Z,63.6
2022-09-10T11:00:38.661Z,61
2022-09-10T11:01:55.765Z,59.9
2022-09-10T11:03:12.869Z,64.1
2022-09-10T11:04:29.973Z,59.1
2022-09-10T11:05:46.093Z,66
2022-09-10T11:07:03.197Z,59.2
2022-09-10T11:08:20.301Z,58.1
2022-09-10T11:09:37.405Z,61
2022-09-10T11:10:54.509Z,54.3
2022-09-10T11:12:11.614Z,64.6
2022-09-10T11:13:28.718Z,52.6
2022-09-10T11:14:45.822Z,50.4
2022-09-10T11:16:02.926Z,63.9
2022-09-10T11:17:20.030Z,58.4
2022-09-10T11:18:37.134Z,58.9
2022-09-10T11:19:54.238Z,63.9
2022-09-10T11:21:11.342Z,57.2
2022-09-10T11:22:27.462Z,60.5
2022-09-10T11:23:44.566Z,63.9
2022-09-10T11:25:01.670Z,59.4
2022-09-10T11:26:18.774Z,60.9
2022-09-10T11:27:35.878Z,57.3
2022-09-10T11:28:52.982Z,58.9
2022-09-10T11:30:10.086Z,63.8
2022-09-10T11:31:27.190Z,64.4
2022-09-10T11:32:44.294Z,58.6
2022-09-10T11:34:01.398Z,60.2
2022-09-10T11:35:18.502Z,63.1
2022-09-10T11:36:35.606Z,53.9
2022-09-10T11:37:52.709Z,55.4
2022-09-10T11:39:08.830Z,58.6
2022-09-10T11:40:25.934Z,59.7
2022-09-10T11:41:43.037Z,65
2022-09-10T11:43:00.141Z,62
2022-09-10T11:44:17.246Z,59.4
2022-09-10T11:45:34.349Z,57.5
2022-09-10T11:46:51.453Z,62.5
2022-09-10T11:48:08.557Z,57.2
2022-09-10T11:49:25.661Z,60.2
2022-09-10T11:50:42.765Z,60.2
2022-09-10T11:51:59.869Z,53.1
2022-09-10T11:53:16.973Z,67.1
2022-09-10T11:54:34.077Z,57.6
2022-09-10T11:55:50.195Z,60.9
2022-09-10T11:57:07.299Z,62.8
2022-09-10T11:58:24.403Z,59.2
2022-09-10T11:59:41.507Z,59.1
2022-09-10T12:00:58.611Z,55.7
2022-09-10T12:02:15.715Z,60.9
2022-09-10T12:03:32.818Z,59.2
2022-09-10T12:04:49.922Z,65.7
2022-09-10T12:06:07.027Z,59.6
2022-09-10T12:07:24.130Z,56.7
2022-09-10T12:08:41.234Z,63
2022-09-10T12:09:58.338Z,53.8
2022-09-10T12:11:15.442Z,56.7
2022-09-10T12:12:31.562Z,60.2
2022-09-10T12:13:48.667Z,61.5
2022-09-10T12:15:05.771Z,58.8
2022-09-10T12:16:22.875Z,76.8
2022-09-10T12:17:39.979Z,77.3
2022-09-10T12:18:57.083Z,76.8
2022-09-10T12:20:13.203Z,85.2
2022-09-10T12:21:30.307Z,63.8
2022-09-10T12:22:47.411Z,62.1
2022-09-10T12:24:04.515Z,58.1
2022-09-10T12:25:21.619Z,56.7
2022-09-10T12:26:38.723Z,60.5
2022-09-10T12:27:55.827Z,61
2022-09-10T12:29:12.931Z,63.3
2022-09-10T12:30:30.036Z,63
2022-09-10T12:31:47.140Z,57.2
2022-09-10T12:33:04.244Z,62.1
2022-09-10T12:34:21.348Z,56
2022-09-10T12:35:38.452Z,62.1
2022-09-10T12:36:54.572Z,63.8
2022-09-10T12:38:11.676Z,59.1
2022-09-10T12:39:28.780Z,60.9
2022-09-10T12:40:45.885Z,63
2022-09-10T12:42:02.989Z,61.8
2022-09-10T12:43:20.093Z,66.8
2022-09-10T12:44:37.197Z,59.9
2022-09-10T12:45:54.301Z,63.6
2022-09-10T12:47:11.405Z,57.2
2022-09-10T12:48:28.510Z,62.3
2022-09-10T12:49:45.614Z,59.1
2022-09-10T12:51:02.718Z,64.9
2022-09-10T12:52:19.822Z,60.9
2022-09-10T12:53:35.943Z,65.4
2022-09-10T12:54:53.047Z,68.1
2022-09-10T12:56:10.151Z,59.7
2022-09-10T12:57:27.255Z,66
2022-09-10T12:58:44.359Z,58.1
2022-09-10T13:00:01.463Z,75.8
2022-09-10T13:01:18.567Z,66.7
2022-09-10T13:02:35.671Z,67.8
2022-09-10T13:03:52.775Z,65.4
2022-09-10T13:05:09.879Z,62
2022-09-10T13:06:26.985Z,64.9
2022-09-10T13:07:44.089Z,66.5
2022-09-10T13:09:01.193Z,64.4
2022-09-10T13:10:17.313Z,65.2
2022-09-10T13:11:34.417Z,63.3
2022-09-10T13:12:51.521Z,59.7
2022-09-10T13:14:08.625Z,68.3
2022-09-10T13:15:25.730Z,65.4
2022-09-10T13:16:42.834Z,65
2022-09-10T13:17:59.938Z,66.3
2022-09-10T13:19:17.042Z,66.3
2022-09-10T13:20:34.146Z,60.4
2022-09-10T13:21:51.250Z,56.8
2022-09-10T13:23:08.354Z,68.3
2022-09-10T13:24:25.458Z,65.7
2022-09-10T13:25:42.562Z,63.9
2022-09-10T13:26:58.682Z,60.7
2022-09-10T13:28:15.786Z,56.2
2022-09-10T13:29:32.890Z,59.6
2022-09-10T13:30:49.993Z,59.9
2022-09-10T13:32:07.097Z,64.7
2022-09-10T13:33:24.201Z,65.9
2022-09-10T13:34:41.305Z,64.6
2022-09-10T13:35:58.409Z,63.9
2022-09-10T13:37:15.513Z,64.4
2022-09-10T13:38:32.617Z,63.9
2022-09-10T13:39:49.721Z,67.3
2022-09-10T13:41:06.825Z,61.2
2022-09-10T13:42:23.928Z,68.4
2022-09-10T13:43:40.049Z,61.3
2022-09-10T13:44:57.153Z,65.4
2022-09-10T13:46:14.257Z,64.1
2022-09-10T13:47:31.361Z,63
2022-09-10T13:48:48.465Z,71.5
2022-09-10T13:50:05.569Z,64.9
2022-09-10T13:51:22.673Z,63.1
2022-09-10T13:52:39.776Z,60.2
2022-09-10T13:53:56.880Z,62.3
2022-09-10T13:55:13.984Z,61.2
2022-09-10T13:56:31.088Z,65.7
2022-09-10T13:57:48.192Z,68.4
2022-09-10T13:59:05.296Z,64.6
2022-09-10T14:00:21.416Z,58.3
2022-09-10T14:01:38.520Z,66.5
2022-09-10T14:02:55.624Z,58.9
2022-09-10T14:04:12.728Z,67
2022-09-10T14:05:29.831Z,62.6
2022-09-10T14:06:46.935Z,65.9
2022-09-10T14:08:04.039Z,66.7
2022-09-10T14:09:21.143Z,67.9
2022-09-10T14:10:38.247Z,67.9
2022-09-10T14:11:55.351Z,66
2022-09-10T14:13:12.455Z,62.6
2022-09-10T14:14:29.559Z,68.8
2022-09-10T14:15:46.661Z,69.6
2022-09-10T14:17:02.781Z,60.5
2022-09-10T14:18:19.885Z,70.8
2022-09-10T14:19:36.988Z,69.1
2022-09-10T14:20:54.093Z,71
2022-09-10T14:22:11.196Z,62
2022-09-10T14:23:28.300Z,64.2
2022-09-10T14:24:45.404Z,67.9
2022-09-10T14:26:02.508Z,60.9
2022-09-10T14:27:19.612Z,61
2022-09-10T14:28:36.716Z,66.7
2022-09-10T14:29:53.820Z,70
2022-09-10T14:31:10.924Z,69.9
2022-09-10T14:32:28.028Z,69.2
2022-09-10T14:33:44.148Z,67.3
2022-09-10T14:35:01.252Z,64.1
2022-09-10T14:36:18.356Z,67.9
2022-09-10T14:37:35.460Z,62.6
2022-09-10T14:38:52.565Z,69.4
2022-09-10T14:40:09.669Z,65
2022-09-10T14:41:26.773Z,66.2
2022-09-10T14:42:43.878Z,64.1
2022-09-10T14:44:00.982Z,60.5
2022-09-10T14:45:18.086Z,63.9
2022-09-10T14:46:35.190Z,69.7
2022-09-10T14:47:52.294Z,61.7
2022-09-10T14:49:09.398Z,63.4
2022-09-10T14:50:25.518Z,66.8
2022-09-10T14:51:42.622Z,58.8
2022-09-10T14:52:59.727Z,63.3
2022-09-10T14:54:16.831Z,60.2
2022-09-10T14:55:33.935Z,55.1
2022-09-10T14:56:51.039Z,69.9
2022-09-10T14:58:08.143Z,66.3
2022-09-10T14:59:25.247Z,63.8
2022-09-10T15:00:42.351Z,62.6
2022-09-10T15:01:59.455Z,58.4
2022-09-10T15:03:16.559Z,65.4
2022-09-10T15:04:33.663Z,64.1
2022-09-10T15:05:50.767Z,67.5
2022-09-10T15:07:06.888Z,63.1
2022-09-10T15:08:23.992Z,64.1
2022-09-10T15:09:41.096Z,64.4
2022-09-10T15:10:58.200Z,56.3
2022-09-10T15:12:15.305Z,70.7
2022-09-10T15:13:32.409Z,66.3
2022-09-10T15:14:49.513Z,60.1
2022-09-10T15:16:06.618Z,61.3
2022-09-10T15:17:23.722Z,65.4
2022-09-10T15:18:40.827Z,57.6
2022-09-10T15:19:57.931Z,68.9
2022-09-10T15:21:15.035Z,67.9
2022-09-10T15:22:32.139Z,68.3
2022-09-10T15:23:48.260Z,65.9
2022-09-10T15:25:05.364Z,59.7
2022-09-10T15:26:22.468Z,63.4
2022-09-10T15:27:39.573Z,61.3
2022-09-10T15:28:56.677Z,56.3
2022-09-10T15:30:13.782Z,64.6
2022-09-10T15:31:30.886Z,87
2022-09-10T15:32:47.991Z,87.1
2022-09-10T15:34:05.095Z,86.2
2022-09-10T15:35:22.200Z,81.8
2022-09-10T15:36:39.304Z,89.1
2022-09-10T15:37:56.409Z,69.7
2022-09-10T15:39:13.513Z,55.5
2022-09-10T15:40:29.634Z,67.1
2022-09-10T15:41:46.738Z,59.1
2022-09-10T15:43:03.842Z,60.5
2022-09-10T15:44:20.947Z,64.4
2022-09-10T15:45:38.051Z,80.7
2022-09-10T15:46:55.155Z,81.3
2022-09-10T15:48:12.260Z,85.7
2022-09-10T15:49:29.365Z,84.4
2022-09-10T15:50:46.469Z,87.3
2022-09-10T15:52:03.574Z,60.7
2022-09-10T15:53:20.678Z,60.4
2022-09-10T15:54:37.782Z,58.1
2022-09-10T15:55:54.887Z,64.9
2022-09-10T15:57:11.007Z,63.4
2022-09-10T15:58:28.112Z,52.5
2022-09-10T15:59:45.216Z,63.6
2022-09-10T16:01:02.320Z,57.8
2022-09-10T16:02:19.424Z,66.7
2022-09-10T16:03:36.528Z,59.1
2022-09-10T16:04:53.632Z,55.1
2022-09-10T16:06:10.736Z,55.9
2022-09-10T16:07:27.839Z,54.9
2022-09-10T16:08:44.943Z,64.4
2022-09-10T16:10:02.047Z,60.2
2022-09-10T16:11:19.151Z,63.8
2022-09-10T16:12:36.255Z,60.9
2022-09-10T16:13:52.375Z,62.6
2022-09-10T16:15:09.479Z,63.8
2022-09-10T16:16:26.583Z,65.4
2022-09-10T16:17:43.687Z,58.6
2022-09-10T16:19:00.791Z,63.4
2022-09-10T16:20:17.893Z,64.7
2022-09-10T16:21:34.997Z,58
2022-09-10T16:22:52.101Z,59.1
2022-09-10T16:24:09.205Z,61.7
2022-09-10T16:25:26.308Z,61.8
2022-09-10T16:26:43.412Z,55.5
2022-09-10T16:28:00.516Z,65.4
2022-09-10T16:29:17.620Z,65.9
2022-09-10T16:30:33.740Z,58.8
2022-09-10T16:31:50.844Z,62.6
2022-09-10T16:33:07.947Z,64.4
2022-09-10T16:34:25.051Z,68.8
2022-09-10T16:35:42.155Z,69.9
2022-09-10T16:36:59.259Z,59.2
2022-09-10T16:38:15.379Z,63.9
2022-09-10T16:39:32.483Z,64.6
2022-09-10T16:40:49.587Z,62
2022-09-10T16:42:06.690Z,53.1
2022-09-10T16:43:23.794Z,64.6
2022-09-10T16:44:40.898Z,62.5
2022-09-10T16:45:58.002Z,67
2022-09-10T16:47:15.106Z,62.8
2022-09-10T16:48:32.211Z,58.4
2022-09-10T16:49:49.315Z,56.2
2022-09-10T16:51:06.419Z,55.1
2022-09-10T16:52:23.523Z,97
2022-09-10T16:53:40.628Z,64.9
2022-09-10T16:54:56.748Z,65.9
2022-09-10T16:56:13.852Z,61
2022-09-10T16:57:30.957Z,59.2
2022-09-10T16:58:48.061Z,51.4
2022-09-10T17:00:05.165Z,65
2022-09-10T17:01:22.269Z,62.8
2022-09-10T17:02:39.373Z,67.9
2022-09-10T17:03:56.477Z,61
2022-09-10T17:05:13.582Z,66.3
2022-09-10T17:06:30.686Z,57.3
2022-09-10T17:07:47.791Z,60.9
2022-09-10T17:09:04.895Z,62.1
2022-09-10T17:10:21.999Z,66.3
2022-09-10T17:11:38.119Z,59.1
2022-09-10T17:12:55.223Z,67.1